LGKRLGSM

Guest
Details From LGKR - IOANNIS KAPODISTRIAS INTL
To LGSM - SAMOS
Flight Number -
Tags generated
Created
Modified
Stats Distance 370 nm / 685 km
Max Altitude 35,000 ft / 10,668 m
Waypoints 8
Social Downloads 10
Likes 0
Share VATSIM

Download

Looking for another format? Having issues loading an existing format? Contact us
Advertisement - Login to hide

Notes

Basic altitude profile: - Ascent Rate: 2500ft/min - Ascent Speed: 250kts - Cruise Altitude: 35000ft - Cruise Speed: 420kts - Descent Rate: 1500ft/min - Descent Speed: 250kts Options: - Use NATs: yes - Use PACOTS: yes - Use low airways: yes - Use high airways: yes

Route

LGKR KRK L995 VARDI UL995 VARIX LGSM

ID Type Via Altitude Latitude Longitude Leg Dist Tot Dist Heading (true) Name
O LGKR APT - 0 ft / 0 m 39.60178˚ 19.91191˚ - 0 nm - IOANNIS KAPODISTRIAS INTL
KRK VOR - 4,300 ft / 1,311 m 39.44389˚ 20.07278˚ 12 nm 12 nm 142° / 142° KERKIRA VOR-DME
VARDI FIX L995 (AWY-LO) 23,500 ft / 7,163 m 38.67194˚ 21.95111˚ 99 nm 111 nm 117° / 118° -
GERMI FIX UL995 (AWY-HI) 35,000 ft / 10,668 m 38.16556˚ 23.12444˚ 63 nm 174 nm 118° / 119° -
ATV VOR UL995 (AWY-HI) 33,000 ft / 10,058 m 37.88861˚ 23.81444˚ 36 nm 210 nm 117° / 117° ATHINAI VOR-DME
KEA VOR UL995 (AWY-HI) 27,500 ft / 8,382 m 37.55719˚ 24.29783˚ 30 nm 241 nm 131° / 131° KEA VOR-DME
VARIX FIX UL995 (AWY-HI) 23,500 ft / 7,163 m 37.36389˚ 25.03417˚ 36 nm 278 nm 108° / 109° -
O LGSM APT - 0 ft / 0 m 37.68901˚ 26.91112˚ 91 nm 369 nm 77° / 78° SAMOS

Altitude Profile

Advertisement - Login to hide

Weather


0- 5 10 15 20 25 30 35+ Temperature / ° C

Clouds and Precipitation
Forecast for 2017-12-17 18:00 UTC. Updated an hour ago

Ground ~20,000 ft ~40,000 ft Winds

LGKR

Details ICAO LGKR (CFU)
Name IOANNIS KAPODISTRIAS INTL
Region Greece
Timezone Europe/Athens (UTC+2.0)
Stats Elevation 6 ft / 2 m (AMSL)
Location 39.601779° 19.911908°
Runways 1
Magnetic Variation 4.099° E

METAR

LGKR 171550Z 36003KT 9999 SCT025 SCT080 12/08 Q1012 NOSIG

Decode

TAF

TAF LGKR 171100Z 1712/1812 33010KT 9999 SCT030 SCT080 PROB30 TEMPO 1712/1803 5000 RA SCT010 BKN025 BECMG 1713/1715 VRB05KT

Decode

Departure Runways

ID Width Length Bearing (true) Bearing (mag) Surface Threshold Offset Overrun Length
17 148 ft / 45 m 7,815 ft / 2,382 m 168.81° 164.71° Asphalt 1,348 ft / 411 m 0 ft / 0 m
35 148 ft / 45 m 7,815 ft / 2,382 m 348.81° 344.71° Asphalt 213 ft / 65 m 0 ft / 0 m

LGSM

Details ICAO LGSM (SMI)
Name SAMOS
Region Greece
Timezone Europe/Athens (UTC+2.0)
Stats Elevation 19 ft / 6 m (AMSL)
Location 37.689012° 26.911123°
Runways 1
Magnetic Variation 4.802° E

METAR

LGSM 171550Z 19010G20KT 9999 SCT018 BKN045 18/16 Q1012

Decode

TAF

Not found

Destination Runways

ID Width Length Bearing (true) Bearing (mag) Surface Threshold Offset Overrun Length
09 148 ft / 45 m 6,690 ft / 2,039 m 94.02° 89.22° Asphalt 230 ft / 70 m 0 ft / 0 m
27 148 ft / 45 m 6,690 ft / 2,039 m 274.03° 269.23° Asphalt 0 ft / 0 m 0 ft / 0 m

Popular Alternatives